sensor_id;sensor_type;location;lat;lon;timestamp;pressure;altitude;pressure_sealevel;temperature;humidity
21276;BME280;36472;52.170;20.884;2023-08-24T00:01:02;100648.75;;;19.35;79.33
21276;BME280;36472;52.170;20.884;2023-08-24T00:03:35;100650.88;;;19.31;79.36
21276;BME280;36472;52.170;20.884;2023-08-24T00:06:05;100647.16;;;19.24;79.93
21276;BME280;36472;52.170;20.884;2023-08-24T00:08:34;100644.47;;;19.24;80.25
21276;BME280;36472;52.170;20.884;2023-08-24T00:11:03;100648.13;;;19.23;80.29
21276;BME280;36472;52.170;20.884;2023-08-24T00:13:33;100643.94;;;19.20;80.39
21276;BME280;36472;52.170;20.884;2023-08-24T00:16:02;100652.38;;;19.16;79.72
21276;BME280;36472;52.170;20.884;2023-08-24T00:18:31;100646.66;;;19.11;80.37
21276;BME280;36472;52.170;20.884;2023-08-24T00:21:02;100649.31;;;19.11;80.87
21276;BME280;36472;52.170;20.884;2023-08-24T00:23:31;100645.00;;;19.10;80.87
21276;BME280;36472;52.170;20.884;2023-08-24T00:26:01;100638.44;;;19.04;81.08
21276;BME280;36472;52.170;20.884;2023-08-24T00:28:30;100654.41;;;19.04;80.92
21276;BME280;36472;52.170;20.884;2023-08-24T00:30:59;100643.06;;;19.02;80.41
21276;BME280;36472;52.170;20.884;2023-08-24T00:33:28;100646.84;;;18.99;80.61
21276;BME280;36472;52.170;20.884;2023-08-24T00:36:00;100648.97;;;18.96;81.33
21276;BME280;36472;52.170;20.884;2023-08-24T00:38:31;100633.91;;;18.86;81.22
21276;BME280;36472;52.170;20.884;2023-08-24T00:41:01;100643.00;;;18.84;81.67
21276;BME280;36472;52.170;20.884;2023-08-24T00:43:30;100639.53;;;18.74;81.85
21276;BME280;36472;52.170;20.884;2023-08-24T00:46:01;100637.47;;;18.67;82.05
21276;BME280;36472;52.170;20.884;2023-08-24T00:48:32;100641.38;;;18.73;82.51
21276;BME280;36472;52.170;20.884;2023-08-24T00:51:01;100644.03;;;18.73;82.76
21276;BME280;36472;52.170;20.884;2023-08-24T00:53:34;100641.81;;;18.68;82.04
21276;BME280;36472;52.170;20.884;2023-08-24T00:56:06;100647.97;;;18.69;81.67
21276;BME280;36472;52.170;20.884;2023-08-24T00:58:35;100645.31;;;18.69;81.26
21276;BME280;36472;52.170;20.884;2023-08-24T01:01:06;100647.44;;;18.65;81.33
21276;BME280;36472;52.170;20.884;2023-08-24T01:03:35;100648.41;;;18.64;80.91
21276;BME280;36472;52.170;20.884;2023-08-24T01:06:06;100644.78;;;18.65;80.75
21276;BME280;36472;52.170;20.884;2023-08-24T01:08:37;100649.38;;;18.63;80.67
21276;BME280;36472;52.170;20.884;2023-08-24T01:11:14;100647.31;;;18.57;81.09
21276;BME280;36472;52.170;20.884;2023-08-24T01:13:52;100648.59;;;18.53;81.79
21276;BME280;36472;52.170;20.884;2023-08-24T01:16:28;100643.72;;;18.48;82.46
21276;BME280;36472;52.170;20.884;2023-08-24T01:19:01;100639.22;;;18.49;82.86
21276;BME280;36472;52.170;20.884;2023-08-24T01:21:34;100637.94;;;18.53;82.23
21276;BME280;36472;52.170;20.884;2023-08-24T01:24:14;100639.34;;;18.57;81.99
21276;BME280;36472;52.170;20.884;2023-08-24T01:26:49;100632.88;;;18.60;81.93
21276;BME280;36472;52.170;20.884;2023-08-24T01:29:19;100638.19;;;18.60;82.18
21276;BME280;36472;52.170;20.884;2023-08-24T01:31:49;100628.69;;;18.57;82.23
21276;BME280;36472;52.170;20.884;2023-08-24T01:34:18;100627.88;;;18.57;81.98
21276;BME280;36472;52.170;20.884;2023-08-24T01:36:47;100625.91;;;18.59;82.42
21276;BME280;36472;52.170;20.884;2023-08-24T01:39:28;100625.44;;;18.63;81.95
21276;BME280;36472;52.170;20.884;2023-08-24T01:42:05;100622.78;;;18.63;81.72
21276;BME280;36472;52.170;20.884;2023-08-24T01:44:39;100622.78;;;18.63;81.60
21276;BME280;36472;52.170;20.884;2023-08-24T01:47:13;100620.44;;;18.60;81.14
21276;BME280;36472;52.170;20.884;2023-08-24T01:49:43;100620.44;;;18.60;81.46
21276;BME280;36472;52.170;20.884;2023-08-24T01:52:14;100616.91;;;18.60;81.82
21276;BME280;36472;52.170;20.884;2023-08-24T01:54:44;100623.91;;;18.61;81.65
21276;BME280;36472;52.170;20.884;2023-08-24T01:57:14;100613.84;;;18.55;82.10
21276;BME280;36472;52.170;20.884;2023-08-24T01:59:43;100621.84;;;18.55;82.08
21276;BME280;36472;52.170;20.884;2023-08-24T02:02:12;100619.03;;;18.56;81.27
21276;BME280;36472;52.170;20.884;2023-08-24T02:04:41;100614.00;;;18.53;80.62
21276;BME280;36472;52.170;20.884;2023-08-24T02:07:10;100612.91;;;18.46;80.25
21276;BME280;36472;52.170;20.884;2023-08-24T02:09:40;100612.91;;;18.46;81.13
21276;BME280;36472;52.170;20.884;2023-08-24T02:12:09;100619.91;;;18.47;81.45
21276;BME280;36472;52.170;20.884;2023-08-24T02:14:39;100620.06;;;18.45;82.18
21276;BME280;36472;52.170;20.884;2023-08-24T02:17:08;100618.69;;;18.41;82.66
21276;BME280;36472;52.170;20.884;2023-08-24T02:19:37;100618.84;;;18.40;82.03
21276;BME280;36472;52.170;20.884;2023-08-24T02:22:07;100616.16;;;18.40;81.89
21276;BME280;36472;52.170;20.884;2023-08-24T02:24:37;100617.13;;;18.39;82.16
21276;BME280;36472;52.170;20.884;2023-08-24T02:27:07;100618.25;;;18.36;81.91
21276;BME280;36472;52.170;20.884;2023-08-24T02:29:36;100617.84;;;18.31;80.66
21276;BME280;36472;52.170;20.884;2023-08-24T02:32:08;100609.47;;;18.26;81.23
21276;BME280;36472;52.170;20.884;2023-08-24T02:34:37;100619.28;;;18.25;82.11
21276;BME280;36472;52.170;20.884;2023-08-24T02:37:08;100610.91;;;18.20;82.31
21276;BME280;36472;52.170;20.884;2023-08-24T02:39:36;100611.28;;;18.25;82.80
21276;BME280;36472;52.170;20.884;2023-08-24T02:42:06;100606.25;;;18.22;82.78
21276;BME280;36472;52.170;20.884;2023-08-24T02:44:35;100613.28;;;18.23;81.96
21276;BME280;36472;52.170;20.884;2023-08-24T02:47:05;100608.09;;;18.22;82.13
21276;BME280;36472;52.170;20.884;2023-08-24T02:49:35;100616.34;;;18.19;82.10
21276;BME280;36472;52.170;20.884;2023-08-24T02:52:04;100610.50;;;18.15;83.04
21276;BME280;36472;52.170;20.884;2023-08-24T02:54:33;100615.13;;;18.13;82.90
21276;BME280;36472;52.170;20.884;2023-08-24T02:57:03;100612.31;;;18.15;83.06
21276;BME280;36472;52.170;20.884;2023-08-24T02:59:34;100617.63;;;18.15;83.05
21276;BME280;36472;52.170;20.884;2023-08-24T03:02:03;100616.94;;;18.12;82.70
21276;BME280;36472;52.170;20.884;2023-08-24T03:04:32;100612.75;;;18.10;82.44
21276;BME280;36472;52.170;20.884;2023-08-24T03:07:02;100610.22;;;18.08;82.68
21276;BME280;36472;52.170;20.884;2023-08-24T03:09:35;100618.19;;;18.08;82.48
21276;BME280;36472;52.170;20.884;2023-08-24T03:12:05;100616.41;;;18.09;83.13
21276;BME280;36472;52.170;20.884;2023-08-24T03:14:33;100615.41;;;18.10;83.03
21276;BME280;36472;52.170;20.884;2023-08-24T03:17:03;100612.75;;;18.10;82.43
21276;BME280;36472;52.170;20.884;2023-08-24T03:19:33;100613.75;;;18.09;82.44
21276;BME280;36472;52.170;20.884;2023-08-24T03:22:03;100615.41;;;18.10;82.62
21276;BME280;36472;52.170;20.884;2023-08-24T03:24:32;100605.03;;;18.07;82.56
21276;BME280;36472;52.170;20.884;2023-08-24T03:27:02;100610.09;;;18.10;83.01
21276;BME280;36472;52.170;20.884;2023-08-24T03:29:31;100609.41;;;18.08;83.32
21276;BME280;36472;52.170;20.884;2023-08-24T03:32:00;100609.41;;;18.08;83.72
21276;BME280;36472;52.170;20.884;2023-08-24T03:34:29;100605.03;;;18.07;84.08
21276;BME280;36472;52.170;20.884;2023-08-24T03:36:59;100609.25;;;18.09;84.19
21276;BME280;36472;52.170;20.884;2023-08-24T03:39:29;100608.56;;;18.07;84.77
21276;BME280;36472;52.170;20.884;2023-08-24T03:46:30;100606.47;;;18.01;83.64
21276;BME280;36472;52.170;20.884;2023-08-24T03:48:59;100609.41;;;17.98;84.22
21276;BME280;36472;52.170;20.884;2023-08-24T03:51:29;100598.63;;;18.00;84.36
21276;BME280;36472;52.170;20.884;2023-08-24T03:53:58;100602.28;;;17.99;84.25
21276;BME280;36472;52.170;20.884;2023-08-24T03:56:29;100605.63;;;18.01;84.50
21276;BME280;36472;52.170;20.884;2023-08-24T03:58:58;100613.75;;;17.99;84.12
21276;BME280;36472;52.170;20.884;2023-08-24T04:01:28;100612.63;;;18.02;84.32
21276;BME280;36472;52.170;20.884;2023-08-24T04:03:57;100611.78;;;18.01;85.00
21276;BME280;36472;52.170;20.884;2023-08-24T04:06:29;100618.06;;;18.00;84.80
21276;BME280;36472;52.170;20.884;2023-08-24T04:08:58;100612.75;;;18.00;84.81
21276;BME280;36472;52.170;20.884;2023-08-24T04:11:28;100613.47;;;18.02;84.69
21276;BME280;36472;52.170;20.884;2023-08-24T04:13:57;100623.81;;;18.05;84.56
21276;BME280;36472;52.170;20.884;2023-08-24T04:16:26;100623.66;;;18.07;84.51
21276;BME280;36472;52.170;20.884;2023-08-24T04:18:55;100621.56;;;18.10;83.98
21276;BME280;36472;52.170;20.884;2023-08-24T04:21:24;100614.56;;;18.09;83.59
21276;BME280;36472;52.170;20.884;2023-08-24T04:23:53;100623.53;;;18.08;83.90
21276;BME280;36472;52.170;20.884;2023-08-24T04:26:22;100621.28;;;18.13;84.07
21276;BME280;36472;52.170;20.884;2023-08-24T04:28:52;100622.53;;;18.19;83.87
21276;BME280;36472;52.170;20.884;2023-08-24T04:31:22;100613.00;;;18.17;84.08
21276;BME280;36472;52.170;20.884;2023-08-24T04:33:51;100618.72;;;18.22;84.14
21276;BME280;36472;52.170;20.884;2023-08-24T04:36:20;100612.44;;;18.23;83.89
21276;BME280;36472;52.170;20.884;2023-08-24T04:38:49;100619.00;;;18.28;84.01
21276;BME280;36472;52.170;20.884;2023-08-24T04:41:18;100621.22;;;18.33;83.61
21276;BME280;36472;52.170;20.884;2023-08-24T04:43:47;100620.63;;;18.39;83.48
21276;BME280;36472;52.170;20.884;2023-08-24T04:46:17;100623.53;;;18.46;83.34
21276;BME280;36472;52.170;20.884;2023-08-24T04:48:46;100626.59;;;18.51;83.25
21276;BME280;36472;52.170;20.884;2023-08-24T04:51:15;100622.22;;;18.60;82.97
21276;BME280;36472;52.170;20.884;2023-08-24T04:53:44;100618.69;;;18.69;82.97
21276;BME280;36472;52.170;20.884;2023-08-24T04:56:13;100627.22;;;18.73;82.98
21276;BME280;36472;52.170;20.884;2023-08-24T04:58:53;100628.88;;;18.83;83.06
21276;BME280;36472;52.170;20.884;2023-08-24T05:01:24;100627.44;;;18.89;83.25
21276;BME280;36472;52.170;20.884;2023-08-24T05:03:54;100632.03;;;18.97;82.82
21276;BME280;36472;52.170;20.884;2023-08-24T05:06:23;100617.94;;;19.04;82.15
21276;BME280;36472;52.170;20.884;2023-08-24T05:08:52;100635.03;;;19.12;82.12
21276;BME280;36472;52.170;20.884;2023-08-24T05:11:24;100630.91;;;19.17;81.66
21276;BME280;36472;52.170;20.884;2023-08-24T05:13:53;100633.97;;;19.22;82.41
21276;BME280;36472;52.170;20.884;2023-08-24T05:16:24;100633.53;;;19.27;81.71
21276;BME280;36472;52.170;20.884;2023-08-24T05:18:53;100629.41;;;19.33;81.58
21276;BME280;36472;52.170;20.884;2023-08-24T05:21:22;100626.00;;;19.40;80.97
21276;BME280;36472;52.170;20.884;2023-08-24T05:23:50;100623.38;;;19.49;80.83
21276;BME280;36472;52.170;20.884;2023-08-24T05:26:20;100627.81;;;19.58;80.48
21276;BME280;36472;52.170;20.884;2023-08-24T05:28:53;100628.03;;;19.65;78.54
21276;BME280;36472;52.170;20.884;2023-08-24T05:31:24;100627.00;;;19.75;78.08
21276;BME280;36472;52.170;20.884;2023-08-24T05:33:53;100624.41;;;19.84;76.72
21276;BME280;36472;52.170;20.884;2023-08-24T05:36:22;100623.28;;;19.94;76.96
21276;BME280;36472;52.170;20.884;2023-08-24T05:38:50;100633.19;;;20.02;75.06
21276;BME280;36472;52.170;20.884;2023-08-24T05:41:33;100631.47;;;20.19;74.64
21276;BME280;36472;52.170;20.884;2023-08-24T05:44:04;100634.69;;;20.31;73.31
21276;BME280;36472;52.170;20.884;2023-08-24T05:46:34;100642.97;;;20.46;72.99
21276;BME280;36472;52.170;20.884;2023-08-24T05:49:04;100639.41;;;20.63;71.58
21276;BME280;36472;52.170;20.884;2023-08-24T05:51:34;100645.00;;;20.86;70.14
21276;BME280;36472;52.170;20.884;2023-08-24T05:54:03;100641.91;;;21.07;68.19
21276;BME280;36472;52.170;20.884;2023-08-24T05:56:32;100639.78;;;21.27;67.10
21276;BME280;36472;52.170;20.884;2023-08-24T05:59:01;100644.53;;;21.50;66.70
21276;BME280;36472;52.170;20.884;2023-08-24T06:01:34;100644.38;;;21.76;65.04
21276;BME280;36472;52.170;20.884;2023-08-24T06:04:06;100638.34;;;21.99;63.71
21276;BME280;36472;52.170;20.884;2023-08-24T06:06:35;100644.16;;;22.35;61.53
21276;BME280;36472;52.170;20.884;2023-08-24T06:09:04;100641.34;;;22.76;58.74
21276;BME280;36472;52.170;20.884;2023-08-24T06:11:37;100645.25;;;22.97;58.80
21276;BME280;36472;52.170;20.884;2023-08-24T06:14:08;100641.41;;;23.08;58.14
21276;BME280;36472;52.170;20.884;2023-08-24T06:16:38;100646.75;;;23.08;57.53
21276;BME280;36472;52.170;20.884;2023-08-24T06:19:07;100649.66;;;23.21;57.54
21276;BME280;36472;52.170;20.884;2023-08-24T06:21:36;100639.06;;;23.28;56.30
21276;BME280;36472;52.170;20.884;2023-08-24T06:24:06;100640.88;;;23.36;56.70
21276;BME280;36472;52.170;20.884;2023-08-24T06:26:35;100639.63;;;23.46;56.82
21276;BME280;36472;52.170;20.884;2023-08-24T06:29:04;100646.31;;;23.50;57.09
21276;BME280;36472;52.170;20.884;2023-08-24T06:31:33;100636.88;;;23.55;55.15
21276;BME280;36472;52.170;20.884;2023-08-24T06:34:03;100638.13;;;23.67;55.01
21276;BME280;36472;52.170;20.884;2023-08-24T06:36:32;100637.31;;;23.66;55.08
21276;BME280;36472;52.170;20.884;2023-08-24T06:39:01;100638.41;;;23.72;55.07
21276;BME280;36472;52.170;20.884;2023-08-24T06:41:33;100634.44;;;23.91;53.93
21276;BME280;36472;52.170;20.884;2023-08-24T06:44:07;100628.94;;;23.84;53.35
21276;BME280;36472;52.170;20.884;2023-08-24T06:46:36;100633.06;;;23.95;52.42
21276;BME280;36472;52.170;20.884;2023-08-24T06:49:06;100635.56;;;23.97;53.02
21276;BME280;36472;52.170;20.884;2023-08-24T06:51:36;100629.72;;;23.93;52.46
21276;BME280;36472;52.170;20.884;2023-08-24T06:54:04;100633.53;;;23.99;53.32
21276;BME280;36472;52.170;20.884;2023-08-24T06:56:34;100635.38;;;23.98;53.39
21276;BME280;36472;52.170;20.884;2023-08-24T06:59:02;100641.78;;;24.12;53.43
21276;BME280;36472;52.170;20.884;2023-08-24T07:01:32;100639.00;;;24.20;54.52
21276;BME280;36472;52.170;20.884;2023-08-24T07:04:01;100642.25;;;24.31;52.67
21276;BME280;36472;52.170;20.884;2023-08-24T07:06:33;100651.63;;;24.35;53.39
21276;BME280;36472;52.170;20.884;2023-08-24T07:09:02;100652.09;;;24.53;52.99
21276;BME280;36472;52.170;20.884;2023-08-24T07:11:34;100645.06;;;24.67;51.99
21276;BME280;36472;52.170;20.884;2023-08-24T07:14:03;100660.16;;;24.83;51.65
21276;BME280;36472;52.170;20.884;2023-08-24T07:16:32;100655.13;;;24.95;51.56
21276;BME280;36472;52.170;20.884;2023-08-24T07:19:01;100662.91;;;25.05;50.95
21276;BME280;36472;52.170;20.884;2023-08-24T07:21:33;100662.38;;;25.16;50.30
21276;BME280;36472;52.170;20.884;2023-08-24T07:24:02;100660.81;;;25.22;50.64
21276;BME280;36472;52.170;20.884;2023-08-24T07:26:31;100668.13;;;25.28;50.80
21276;BME280;36472;52.170;20.884;2023-08-24T07:29:00;100666.31;;;25.28;50.79
21276;BME280;36472;52.170;20.884;2023-08-24T07:31:29;100662.28;;;25.24;51.19
21276;BME280;36472;52.170;20.884;2023-08-24T07:33:58;100667.66;;;25.39;52.29
21276;BME280;36472;52.170;20.884;2023-08-24T07:36:28;100666.03;;;25.45;50.99
21276;BME280;36472;52.170;20.884;2023-08-24T07:38:59;100661.56;;;25.52;51.14
21276;BME280;36472;52.170;20.884;2023-08-24T07:41:28;100658.28;;;25.56;50.39
21276;BME280;36472;52.170;20.884;2023-08-24T07:43:57;100666.44;;;25.63;50.52
21276;BME280;36472;52.170;20.884;2023-08-24T07:46:26;100655.53;;;25.71;49.56
21276;BME280;36472;52.170;20.884;2023-08-24T07:48:55;100651.44;;;25.75;49.65
21276;BME280;36472;52.170;20.884;2023-08-24T07:51:25;100662.19;;;25.75;48.69
21276;BME280;36472;52.170;20.884;2023-08-24T07:53:54;100651.78;;;25.66;48.87
21276;BME280;36472;52.170;20.884;2023-08-24T07:56:24;100651.84;;;25.72;48.53
21276;BME280;36472;52.170;20.884;2023-08-24T07:58:53;100646.53;;;25.86;48.47
21276;BME280;36472;52.170;20.884;2023-08-24T08:01:22;100651.63;;;25.96;49.59
21276;BME280;36472;52.170;20.884;2023-08-24T08:03:52;100645.78;;;26.13;48.74
21276;BME280;36472;52.170;20.884;2023-08-24T08:06:21;100650.81;;;26.30;47.65
21276;BME280;36472;52.170;20.884;2023-08-24T08:08:52;100650.44;;;26.33;47.47
21276;BME280;36472;52.170;20.884;2023-08-24T08:11:21;100649.25;;;26.42;47.89
21276;BME280;36472;52.170;20.884;2023-08-24T08:13:51;100645.84;;;26.62;48.02
21276;BME280;36472;52.170;20.884;2023-08-24T08:16:20;100653.38;;;26.73;46.76
21276;BME280;36472;52.170;20.884;2023-08-24T08:18:49;100648.88;;;26.94;45.95
21276;BME280;36472;52.170;20.884;2023-08-24T08:21:18;100645.16;;;26.95;47.26
21276;BME280;36472;52.170;20.884;2023-08-24T08:23:49;100653.25;;;26.95;47.37
21276;BME280;36472;52.170;20.884;2023-08-24T08:26:18;100648.66;;;26.82;47.21
21276;BME280;36472;52.170;20.884;2023-08-24T08:28:47;100648.88;;;26.94;45.86
21276;BME280;36472;52.170;20.884;2023-08-24T08:31:18;100655.31;;;26.93;46.29
21276;BME280;36472;52.170;20.884;2023-08-24T08:33:48;100645.56;;;26.92;45.83
21276;BME280;36472;52.170;20.884;2023-08-24T08:36:18;100646.00;;;27.02;46.86
21276;BME280;36472;52.170;20.884;2023-08-24T08:38:46;100645.84;;;27.10;45.42
21276;BME280;36472;52.170;20.884;2023-08-24T08:41:22;100651.41;;;27.02;46.08
21276;BME280;36472;52.170;20.884;2023-08-24T08:43:55;100649.13;;;27.05;45.61
21276;BME280;36472;52.170;20.884;2023-08-24T08:46:27;100641.06;;;27.12;46.29
21276;BME280;36472;52.170;20.884;2023-08-24T08:48:56;100642.78;;;27.27;45.76
21276;BME280;36472;52.170;20.884;2023-08-24T08:51:28;100648.25;;;27.40;45.14
21276;BME280;36472;52.170;20.884;2023-08-24T08:53:58;100645.09;;;27.43;44.16
21276;BME280;36472;52.170;20.884;2023-08-24T08:56:28;100645.75;;;27.45;44.25
21276;BME280;36472;52.170;20.884;2023-08-24T08:58:59;100643.91;;;27.66;45.50
21276;BME280;36472;52.170;20.884;2023-08-24T09:01:30;100638.69;;;27.84;44.29
21276;BME280;36472;52.170;20.884;2023-08-24T09:04:00;100634.13;;;27.91;44.37
21276;BME280;36472;52.170;20.884;2023-08-24T09:06:30;100636.66;;;27.93;45.61
21276;BME280;36472;52.170;20.884;2023-08-24T09:09:00;100636.22;;;28.03;44.62
21276;BME280;36472;52.170;20.884;2023-08-24T09:11:29;100631.22;;;28.13;44.46
21276;BME280;36472;52.170;20.884;2023-08-24T09:13:58;100636.38;;;28.28;45.68
21276;BME280;36472;52.170;20.884;2023-08-24T09:16:30;100634.50;;;28.28;45.84
21276;BME280;36472;52.170;20.884;2023-08-24T09:19:05;100629.97;;;28.15;43.84
21276;BME280;36472;52.170;20.884;2023-08-24T09:21:37;100626.41;;;28.15;44.13
21276;BME280;36472;52.170;20.884;2023-08-24T09:24:07;100628.44;;;28.53;42.69
21276;BME280;36472;52.170;20.884;2023-08-24T09:26:38;100627.47;;;28.86;41.63
21276;BME280;36472;52.170;20.884;2023-08-24T09:29:15;100625.75;;;29.37;39.81
21276;BME280;36472;52.170;20.884;2023-08-24T09:31:45;100618.69;;;29.93;39.62
21276;BME280;36472;52.170;20.884;2023-08-24T09:34:14;100620.13;;;30.14;38.60
21276;BME280;36472;52.170;20.884;2023-08-24T09:36:43;100622.47;;;29.85;39.43
21276;BME280;36472;52.170;20.884;2023-08-24T09:39:17;100615.44;;;30.02;38.49
21276;BME280;36472;52.170;20.884;2023-08-24T09:41:49;100617.72;;;30.24;38.83
21276;BME280;36472;52.170;20.884;2023-08-24T09:44:19;100622.63;;;30.52;38.67
21276;BME280;36472;52.170;20.884;2023-08-24T09:46:50;100615.41;;;30.65;38.49
21276;BME280;36472;52.170;20.884;2023-08-24T09:49:19;100614.16;;;30.79;37.69
21276;BME280;36472;52.170;20.884;2023-08-24T09:51:50;100616.31;;;30.40;38.94
21276;BME280;36472;52.170;20.884;2023-08-24T09:54:22;100616.53;;;30.38;38.24
21276;BME280;36472;52.170;20.884;2023-08-24T09:56:56;100617.78;;;30.17;38.00
21276;BME280;36472;52.170;20.884;2023-08-24T09:59:28;100610.44;;;29.81;38.19
21276;BME280;36472;52.170;20.884;2023-08-24T10:02:03;100615.31;;;29.40;39.06
21276;BME280;36472;52.170;20.884;2023-08-24T10:04:34;100617.94;;;29.22;39.99
21276;BME280;36472;52.170;20.884;2023-08-24T10:07:10;100616.44;;;29.26;39.12
21276;BME280;36472;52.170;20.884;2023-08-24T10:09:53;100615.47;;;29.14;39.85
21276;BME280;36472;52.170;20.884;2023-08-24T10:12:27;100619.63;;;29.23;39.63
21276;BME280;36472;52.170;20.884;2023-08-24T10:15:00;100611.88;;;29.52;39.81
21276;BME280;36472;52.170;20.884;2023-08-24T10:17:33;100616.59;;;29.63;40.36
21276;BME280;36472;52.170;20.884;2023-08-24T10:20:05;100614.78;;;29.82;39.53
21276;BME280;36472;52.170;20.884;2023-08-24T10:22:37;100609.00;;;29.78;39.10
21276;BME280;36472;52.170;20.884;2023-08-24T10:25:08;100622.38;;;29.98;39.23
21276;BME280;36472;52.170;20.884;2023-08-24T10:27:39;100624.16;;;30.05;38.87
21276;BME280;36472;52.170;20.884;2023-08-24T10:30:12;100612.69;;;30.28;39.33
21276;BME280;36472;52.170;20.884;2023-08-24T10:32:44;100616.28;;;30.21;38.25
21276;BME280;36472;52.170;20.884;2023-08-24T10:35:17;100615.44;;;30.02;38.13
21276;BME280;36472;52.170;20.884;2023-08-24T10:37:46;100618.22;;;29.71;39.81
21276;BME280;36472;52.170;20.884;2023-08-24T10:40:31;100613.31;;;29.86;39.15
21276;BME280;36472;52.170;20.884;2023-08-24T10:43:05;100605.50;;;30.33;38.01
21276;BME280;36472;52.170;20.884;2023-08-24T10:45:59;100609.47;;;30.56;37.54
21276;BME280;36472;52.170;20.884;2023-08-24T10:48:57;100606.66;;;30.63;37.49
21276;BME280;36472;52.170;20.884;2023-08-24T10:51:27;100606.84;;;30.80;37.87
21276;BME280;36472;52.170;20.884;2023-08-24T10:53:59;100607.22;;;31.02;36.61
21276;BME280;36472;52.170;20.884;2023-08-24T10:56:35;100610.69;;;31.09;36.16
21276;BME280;36472;52.170;20.884;2023-08-24T10:59:14;100609.84;;;30.90;36.08
21276;BME280;36472;52.170;20.884;2023-08-24T11:01:54;100613.63;;;30.89;36.87
21276;BME280;36472;52.170;20.884;2023-08-24T11:04:25;100602.66;;;30.28;36.96
21276;BME280;36472;52.170;20.884;2023-08-24T11:06:55;100597.34;;;30.40;38.37
21276;BME280;36472;52.170;20.884;2023-08-24T11:09:25;100595.44;;;30.59;39.02
21276;BME280;36472;52.170;20.884;2023-08-24T11:12:00;100587.13;;;31.33;37.15
21276;BME280;36472;52.170;20.884;2023-08-24T11:14:29;100592.38;;;31.82;36.33
21276;BME280;36472;52.170;20.884;2023-08-24T11:17:01;100598.50;;;31.89;35.61
21276;BME280;36472;52.170;20.884;2023-08-24T11:19:50;100592.84;;;32.02;35.59
21276;BME280;36472;52.170;20.884;2023-08-24T11:22:19;100590.47;;;32.18;35.64
21276;BME280;36472;52.170;20.884;2023-08-24T11:24:49;100600.53;;;32.29;35.84
21276;BME280;36472;52.170;20.884;2023-08-24T11:27:21;100587.69;;;32.53;34.61
21276;BME280;36472;52.170;20.884;2023-08-24T11:29:59;100584.88;;;32.48;34.04
21276;BME280;36472;52.170;20.884;2023-08-24T11:32:29;100581.59;;;32.34;34.63
21276;BME280;36472;52.170;20.884;2023-08-24T11:34:59;100589.81;;;32.51;34.46
21276;BME280;36472;52.170;20.884;2023-08-24T11:37:28;100588.84;;;32.17;34.25
21276;BME280;36472;52.170;20.884;2023-08-24T11:39:57;100586.81;;;31.88;35.18
21276;BME280;36472;52.170;20.884;2023-08-24T11:42:35;100579.38;;;31.84;35.61
21276;BME280;36472;52.170;20.884;2023-08-24T11:45:11;100572.44;;;31.76;35.61
21276;BME280;36472;52.170;20.884;2023-08-24T11:47:42;100573.94;;;31.48;35.88
21276;BME280;36472;52.170;20.884;2023-08-24T11:50:13;100570.84;;;31.45;37.79
21276;BME280;36472;52.170;20.884;2023-08-24T11:52:42;100570.00;;;31.44;36.97
21276;BME280;36472;52.170;20.884;2023-08-24T11:55:12;100574.97;;;31.47;36.51
21276;BME280;36472;52.170;20.884;2023-08-24T11:57:42;100563.19;;;31.42;35.21
21276;BME280;36472;52.170;20.884;2023-08-24T12:00:13;100572.44;;;31.22;36.13
21276;BME280;36472;52.170;20.884;2023-08-24T12:02:44;100559.31;;;30.77;36.72
21276;BME280;36472;52.170;20.884;2023-08-24T12:05:26;100556.56;;;30.65;37.76
21276;BME280;36472;52.170;20.884;2023-08-24T12:07:55;100553.22;;;30.51;37.42
21276;BME280;36472;52.170;20.884;2023-08-24T12:10:25;100547.63;;;30.46;37.44
21276;BME280;36472;52.170;20.884;2023-08-24T12:13:03;100560.13;;;30.47;36.30
21276;BME280;36472;52.170;20.884;2023-08-24T12:15:34;100547.19;;;30.12;37.59
21276;BME280;36472;52.170;20.884;2023-08-24T12:18:11;100545.75;;;29.91;37.24
21276;BME280;36472;52.170;20.884;2023-08-24T12:20:42;100539.75;;;29.64;37.42
21276;BME280;36472;52.170;20.884;2023-08-24T12:23:11;100532.13;;;29.54;37.90
21276;BME280;36472;52.170;20.884;2023-08-24T12:25:43;100530.19;;;29.36;38.28
21276;BME280;36472;52.170;20.884;2023-08-24T12:28:14;100527.63;;;29.41;39.06
21276;BME280;36472;52.170;20.884;2023-08-24T12:30:45;100531.84;;;29.37;38.35
21276;BME280;36472;52.170;20.884;2023-08-24T12:33:22;100522.03;;;29.11;40.01
21276;BME280;36472;52.170;20.884;2023-08-24T12:35:53;100532.53;;;29.01;40.42
21276;BME280;36472;52.170;20.884;2023-08-24T12:38:24;100524.03;;;28.97;40.20
21276;BME280;36472;52.170;20.884;2023-08-24T12:40:54;100522.97;;;28.98;39.92
21276;BME280;36472;52.170;20.884;2023-08-24T12:43:22;100530.53;;;28.83;39.65
21276;BME280;36472;52.170;20.884;2023-08-24T12:45:52;100522.53;;;28.63;39.57
21276;BME280;36472;52.170;20.884;2023-08-24T12:48:21;100519.22;;;28.54;40.39
21276;BME280;36472;52.170;20.884;2023-08-24T12:50:51;100519.06;;;28.56;38.64
21276;BME280;36472;52.170;20.884;2023-08-24T12:53:20;100520.34;;;28.40;39.25
21276;BME280;36472;52.170;20.884;2023-08-24T12:55:49;100528.53;;;28.20;40.78
21276;BME280;36472;52.170;20.884;2023-08-24T13:02:50;100523.69;;;28.35;41.29
21276;BME280;36472;52.170;20.884;2023-08-24T13:05:19;100518.88;;;28.44;41.21
21276;BME280;36472;52.170;20.884;2023-08-24T13:07:50;100523.84;;;28.47;40.73